LIPQ/TRS METAR and TAF weather

Enter ICAO airport designator
Station Type Date Time Source
LIPQ METAR 2020/09/30 15:20 UTC NOAA

LIPQ 301520Z AUTO 24007KT 9999 NCD 20/13 Q1012


Station Type Date Time Source
LIPQ Decoded METAR 2020/09/30 15:20 UTC NOAA

Ronchi Dei Legionari, Italy (LIPQ) 45-49N 013-29E 12M
Sep 30, 2020 - 11:20 AM EDT / 2020.09.30 1520 UTC
Wind: from the WSW (240 degrees) at 8 MPH (7 KT):0
Visibility: greater than 7 mile(s):0
Temperature: 68 F (20 C)
Dew Point: 55 F (13 C)
Relative Humidity: 64%
Pressure (altimeter): 29.88 in. Hg (1012 hPa)
ob: LIPQ 301520Z AUTO 24007KT 9999 NCD 20/13 Q1012
cycle: 15

Station Type Date Time Source
LIPQ TAF 2020/09/30 12:21 UTC NOAA

TAF LIPQ 301100Z 3012/0112 VRB05KT 9999 FEW070

Example: see airport list